Sw Cap Ferrat 1 — 3FZK6 — position and weather

sailwx.info

Track history (hours):
 
Tides and Currents Weather Stations Pressure Air Temp Water Temp Dewpoint Dewpoint Depression Visibility Wind Speed Wind Dir Waves Ship Positions

Sw Cap Ferrat 1

Last reported at 2017-Nov-28 16:02 UTC. Time now 2017-Dec-12 23:37 UTC.
Position N 49°40' W 003°49'.
Warning: this ship's position is 14 days out of date.

Length 183 m; draft 11 m.

Type: Tanker. MMSI: 374419000.

Date/timePositionNaut miles runAvg speedWind from/ knotsBaromVisibWave heightAir tempDewpointWater temp
2017-Nov-28 16:02N 49°40' W 003°49'112.6
2017-Nov-28 16:00N 49°40' W 003°49'1312.3
2017-Nov-28 14:55N 49°47' W 003°31'512.0
2017-Nov-28 14:30N 49°49' W 003°24'612.0
2017-Nov-28 14:00N 49°52' W 003°16'611.7
2017-Nov-28 13:30N 49°54' W 003°08'611.8
2017-Nov-28 13:00N 49°56' W 002°59'611.9
2017-Nov-28 12:30N 49°58' W 002°50'612.1
2017-Nov-28 11:59N 50°01' W 002°41'712.5
2017-Nov-28 11:27N 50°04' W 002°32'1413.0
2017-Nov-28 10:24N 50°07' W 002°11'613.7
2017-Nov-28 09:59N 50°09' W 002°03'1114.0
2017-Nov-28 09:12N 50°12' W 001°46'414.1
2017-Nov-28 08:53N 50°13' W 001°39'714.1
2017-Nov-28 08:24N 50°15' W 001°29'714.0
2017-Nov-28 07:56N 50°16' W 001°19'613.7
2017-Nov-28 07:30N 50°18' W 001°10'2812.7
2017-Nov-28 05:19N 50°25' W 000°29'1011.8
2017-Nov-28 04:30N 50°28' W 000°14'611.5
2017-Nov-28 04:00N 50°29' W 000°05'611.4
2017-Nov-28 03:30N 50°31' E 000°03'611.4
2017-Nov-28 03:00N 50°32' E 000°12'611.4
2017-Nov-28 02:30N 50°34' E 000°21'611.6
2017-Nov-28 02:00N 50°35' E 000°29'612.0
2017-Nov-28 01:30N 50°37' E 000°38'612.4
2017-Nov-28 01:00N 50°41' E 000°46'612.8
2017-Nov-28 00:30N 50°45' E 000°54'612.9
2017-Nov-28 00:00N 50°49' E 001°01'713.1
2017-Nov-27 23:30N 50°54' E 001°09'613.1
2017-Nov-27 23:00N 50°58' E 001°16'612.8
2017-Nov-27 22:30N 51°03' E 001°24'612.1
2017-Nov-27 22:00N 51°06' E 001°32'611.4
2017-Nov-27 21:30N 51°10' E 001°39'611.1
2017-Nov-27 21:00N 51°13' E 001°46'611.1
2017-Nov-27 20:30N 51°18' E 001°49'611.1
2017-Nov-27 20:00N 51°23' E 001°53'510.4
2017-Nov-27 19:30N 51°27' E 001°58'510.7
2017-Nov-27 19:00N 51°31' E 002°04'510.9
2017-Nov-27 18:30N 51°35' E 002°10'5910.8
2017-Nov-27 13:03N 52°04' E 003°33'111.1
2017-Nov-27 13:00N 52°04' E 003°34'611.2
2017-Nov-27 12:30N 52°04' E 003°43'3 5.7
2017-Nov-27 12:00N 52°05' E 003°48'4 7.1
2017-Nov-27 11:30N 52°03' E 003°53'5 9.7
2017-Nov-27 11:00N 52°01' E 003°60'510.9
2017-Nov-27 10:30N 51°58' E 004°07'4 7.4
2017-Nov-27 10:00N 51°56' E 004°12'1 1.3
2017-Nov-27 09:22N 51°55' E 004°13'0 0.0
2017-Nov-27 08:52N 51°55' E 004°13'0 0.0
2017-Nov-27 08:16N 51°55' E 004°13'0 0.0
2017-Nov-27 06:58N 51°55' E 004°13'0 0.0
2017-Nov-27 05:49N 51°55' E 004°13'0 0.0
2017-Nov-27 04:55N 51°55' E 004°13'0 0.0
2017-Nov-27 03:07N 51°55' E 004°13'0 0.0
2017-Nov-27 02:43N 51°55' E 004°13'0 0.0
2017-Nov-27 02:22N 51°55' E 004°13'0 0.0
2017-Nov-27 01:22N 51°55' E 004°13'0 0.0
2017-Nov-27 00:58N 51°55' E 004°13'0 0.0
2017-Nov-27 00:16N 51°55' E 004°13'0 0.0
2017-Nov-26 23:40N 51°55' E 004°13'0 0.0
2017-Nov-26 23:13N 51°55' E 004°13'0 0.0
2017-Nov-26 22:58N 51°55' E 004°13'0 0.0
2017-Nov-26 22:22N 51°55' E 004°13'0 0.0
2017-Nov-26 21:40N 51°55' E 004°13'0 0.0
2017-Nov-26 21:22N 51°55' E 004°13'0 0.0
2017-Nov-26 20:34N 51°55' E 004°13'0 0.0
2017-Nov-26 20:28N 51°55' E 004°13'0 0.0
2017-Nov-26 18:58N 51°55' E 004°13'0 0.0
2017-Nov-26 18:22N 51°55' E 004°13'0 0.0
2017-Nov-26 17:58N 51°55' E 004°13'0 0.0
2017-Nov-26 17:22N 51°55' E 004°13'0 0.0
2017-Nov-26 16:34N 51°55' E 004°13'0 0.0
2017-Nov-26 16:28N 51°55' E 004°13'0 0.0
2017-Nov-26 15:58N 51°55' E 004°13'0 0.0
2017-Nov-26 15:22N 51°55' E 004°13'0 0.0
2017-Nov-26 14:28N 51°55' E 004°13'0 0.0
2017-Nov-26 13:58N 51°55' E 004°13'0 0.0
2017-Nov-26 10:07N 51°55' E 004°13'0 0.0
2017-Nov-26 09:58N 51°55' E 004°13'0 0.0
2017-Nov-26 09:13N 51°55' E 004°13'0 0.0
2017-Nov-26 08:52N 51°55' E 004°13'0 0.0
2017-Nov-26 08:22N 51°55' E 004°13'0 0.0
2017-Nov-26 07:58N 51°55' E 004°13'0 0.0
2017-Nov-26 07:19N 51°55' E 004°13'0 0.0
2017-Nov-26 06:46N 51°55' E 004°13'0 0.0
2017-Nov-26 06:19N 51°55' E 004°13'0 0.0
2017-Nov-26 05:55N 51°55' E 004°13'0 0.0
2017-Nov-26 05:22N 51°55' E 004°13'0 0.0
2017-Nov-26 04:58N 51°55' E 004°13'0 0.0
2017-Nov-26 04:28N 51°55' E 004°13'0 0.0
2017-Nov-26 03:58N 51°55' E 004°13'0 0.0
2017-Nov-26 03:25N 51°55' E 004°13'0 0.0
2017-Nov-26 02:58N 51°55' E 004°13'0 0.0
2017-Nov-26 02:28N 51°55' E 004°13'0 0.0
2017-Nov-26 01:52N 51°55' E 004°13'0 0.0
2017-Nov-26 01:19N 51°55' E 004°13'0 0.0
2017-Nov-26 00:52N 51°55' E 004°13'0 0.0
2017-Nov-26 00:25N 51°55' E 004°13'0 0.0
2017-Nov-25 23:58N 51°55' E 004°13'0 0.0
2017-Nov-25 23:28N 51°55' E 004°13'0 0.0
2017-Nov-25 22:49N 51°55' E 004°13'0 0.0
2017-Nov-25 22:28N 51°55' E 004°13'0 0.0
2017-Nov-25 21:58N 51°55' E 004°13'0 0.0
2017-Nov-25 21:28N 51°55' E 004°13'0 0.0
2017-Nov-25 19:52N 51°55' E 004°13'0 0.0
2017-Nov-25 19:22N 51°55' E 004°13'0 0.0
2017-Nov-25 18:58N 51°55' E 004°13'0 0.0
2017-Nov-25 18:25N 51°55' E 004°13'0 0.0
2017-Nov-25 17:52N 51°55' E 004°13'0 0.0
2017-Nov-25 17:16N 51°55' E 004°13'0 0.0
2017-Nov-25 16:52N 51°55' E 004°13'0 0.0
2017-Nov-25 16:28N 51°55' E 004°13'0 0.0
2017-Nov-25 15:55N 51°55' E 004°13'0 0.0
2017-Nov-25 15:28N 51°55' E 004°13'0 0.0
2017-Nov-25 14:40N 51°55' E 004°13'0 0.0
2017-Nov-25 14:28N 51°55' E 004°13'0 0.0
2017-Nov-25 13:49N 51°55' E 004°13'0 0.0
2017-Nov-25 13:22N 51°55' E 004°13'0 0.0
2017-Nov-25 12:58N 51°55' E 004°13'0 0.0
2017-Nov-25 12:22N 51°55' E 004°13'0 0.0
2017-Nov-25 11:52N 51°55' E 004°13'0 0.0
2017-Nov-25 11:28N 51°55' E 004°13'0 0.0
2017-Nov-25 10:58N 51°55' E 004°13'0 0.0
2017-Nov-25 10:07N 51°55' E 004°13'0 0.0
2017-Nov-25 09:58N 51°55' E 004°13'0 0.0
2017-Nov-25 09:28N 51°55' E 004°13'0 0.0
2017-Nov-25 08:37N 51°55' E 004°13'0 0.0
2017-Nov-25 08:07N 51°55' E 004°13'0 0.0
2017-Nov-25 07:52N 51°55' E 004°13'0 0.0
2017-Nov-25 07:25N 51°55' E 004°13'0 0.0
2017-Nov-25 06:52N 51°55' E 004°13'0 0.0
2017-Nov-25 06:28N 51°55' E 004°13'0 0.0
2017-Nov-25 05:58N 51°55' E 004°13'0 0.0
2017-Nov-25 05:28N 51°55' E 004°13'0 0.0
2017-Nov-25 04:49N 51°55' E 004°13'0 0.0
2017-Nov-25 04:19N 51°55' E 004°13'0 0.0
2017-Nov-25 03:55N 51°55' E 004°13'0 0.0
2017-Nov-25 03:25N 51°55' E 004°13'0 0.0
2017-Nov-25 02:58N 51°55' E 004°13'0 0.0
2017-Nov-25 02:28N 51°55' E 004°13'0 0.0
2017-Nov-25 01:55N 51°55' E 004°13'0 0.0
2017-Nov-25 01:22N 51°55' E 004°13'0 0.0
2017-Nov-25 00:49N 51°55' E 004°13'0 0.0
2017-Nov-25 00:28N 51°55' E 004°13'0 0.0
2017-Nov-24 23:55N 51°55' E 004°13'0 0.0
2017-Nov-24 23:25N 51°55' E 004°13'0 0.0
2017-Nov-24 22:55N 51°55' E 004°13'0 0.0
2017-Nov-24 22:13N 51°55' E 004°13'0 0.0
2017-Nov-24 21:58N 51°55' E 004°13'0 0.0
2017-Nov-24 21:22N 51°55' E 004°13'0 0.0
2017-Nov-24 20:55N 51°55' E 004°13'0 0.0
2017-Nov-24 20:30N 51°55' E 004°13'1 1.7
2017-Nov-24 20:00N 51°56' E 004°12'3 6.1
2017-Nov-24 19:30N 51°58' E 004°08'510.8
2017-Nov-24 19:01N 51°60' E 004°00'713.4
2017-Nov-24 18:30N 52°00' E 003°49'4 8.1
2017-Nov-24 18:00N 52°04' E 003°46'5 8.9
2017-Nov-24 17:30N 52°08' E 003°45'4 7.9
2017-Nov-24 16:58N 52°10' E 003°38'0 0.2
2017-Nov-24 16:16N 52°10' E 003°39'0 0.1
2017-Nov-24 15:58N 52°10' E 003°39'0 0.1
2017-Nov-24 15:25N 52°10' E 003°39'0 0.0
2017-Nov-24 14:55N 52°10' E 003°39'0 0.1
2017-Nov-24 14:25N 52°10' E 003°39'0 0.1
2017-Nov-24 13:58N 52°10' E 003°39'0 0.0
2017-Nov-24 13:28N 52°10' E 003°39'0 0.0
2017-Nov-24 12:52N 52°10' E 003°39'0 0.1
2017-Nov-24 12:28N 52°10' E 003°39'0 0.0
2017-Nov-24 11:58N 52°10' E 003°39'0 0.0
2017-Nov-24 11:28N 52°10' E 003°39'0 0.0
2017-Nov-24 10:58N 52°10' E 003°39'0 0.0
2017-Nov-24 10:28N 52°10' E 003°39'0 0.1
2017-Nov-24 09:49N 52°10' E 003°39'0 0.1
2017-Nov-24 09:28N 52°10' E 003°39'0 0.0
2017-Nov-24 08:58N 52°10' E 003°39'0 0.2
2017-Nov-24 08:28N 52°10' E 003°39'0 0.1
2017-Nov-24 07:52N 52°10' E 003°39'0 0.0
2017-Nov-24 07:13N 52°10' E 003°39'0 0.1
2017-Nov-24 06:58N 52°10' E 003°39'0 0.0
2017-Nov-24 06:13N 52°10' E 003°39'0 0.0
2017-Nov-24 05:49N 52°10' E 003°39'0 0.0
2017-Nov-24 05:19N 52°10' E 003°39'0 0.0
2017-Nov-24 03:34N 52°10' E 003°39'0 0.1
2017-Nov-24 03:13N 52°10' E 003°39'0 0.1
2017-Nov-24 02:58N 52°10' E 003°39'0 0.0
2017-Nov-24 02:25N 52°10' E 003°39'0 0.1
2017-Nov-24 01:46N 52°10' E 003°39'0 0.0
2017-Nov-24 01:28N 52°10' E 003°39'0 0.1
2017-Nov-24 00:58N 52°10' E 003°39'0 0.0
2017-Nov-24 00:28N 52°10' E 003°39'0 0.0
2017-Nov-23 23:58N 52°10' E 003°39'0 0.0
2017-Nov-23 23:28N 52°10' E 003°39'0 0.1
2017-Nov-23 22:52N 52°10' E 003°39'0 0.1
2017-Nov-23 22:28N 52°10' E 003°39'0 0.0
2017-Nov-23 21:58N 52°10' E 003°39'0 0.1
2017-Nov-23 21:28N 52°10' E 003°39'0 0.0
2017-Nov-23 20:55N 52°10' E 003°39'0 0.0
2017-Nov-23 20:19N 52°10' E 003°39'0 0.0
2017-Nov-23 19:58N 52°10' E 003°39'0 0.0
2017-Nov-23 19:19N 52°10' E 003°39'0 0.0
2017-Nov-23 18:49N 52°10' E 003°39'0 0.1
2017-Nov-23 18:22N 52°10' E 003°39'0 0.0
2017-Nov-23 17:55N 52°10' E 003°39'0 0.0
2017-Nov-23 17:19N 52°10' E 003°39'0 0.0
2017-Nov-23 16:37N 52°10' E 003°39'0 0.0
2017-Nov-23 16:16N 52°10' E 003°39'0 0.1
2017-Nov-23 15:52N 52°10' E 003°39'0 0.1
2017-Nov-23 15:25N 52°10' E 003°39'0 0.1
2017-Nov-23 14:58N 52°10' E 003°39'0 0.1
2017-Nov-23 14:04N 52°10' E 003°39'0 0.1
2017-Nov-23 13:52N 52°10' E 003°39'0 0.0
2017-Nov-23 13:28N 52°10' E 003°39'0 0.0
2017-Nov-23 12:58N 52°10' E 003°39'0 0.0
2017-Nov-23 12:13N 52°10' E 003°39'0 0.1
2017-Nov-23 11:55N 52°10' E 003°39'0 0.0
2017-Nov-23 11:28N 52°10' E 003°39'0 0.2
2017-Nov-23 10:55N 52°10' E 003°39'0 0.0
2017-Nov-23 10:10N 52°10' E 003°39'0 0.1
2017-Nov-23 09:49N 52°10' E 003°39'0 0.1
2017-Nov-23 09:13N 52°10' E 003°39'0 0.0
2017-Nov-23 08:40N 52°10' E 003°39'0 0.1
2017-Nov-23 08:28N 52°10' E 003°39'0 0.0
2017-Nov-23 07:58N 52°10' E 003°39'0 0.1
2017-Nov-23 07:28N 52°10' E 003°38'0 0.0
2017-Nov-23 06:43N 52°10' E 003°38'0 0.1
2017-Nov-23 06:28N 52°10' E 003°39'0 0.0
2017-Nov-23 05:55N 52°10' E 003°39'0 0.0
2017-Nov-23 05:16N 52°10' E 003°38'0 0.1
2017-Nov-23 04:58N 52°10' E 003°39'0 0.1
2017-Nov-23 04:25N 52°10' E 003°38'0 0.0
2017-Nov-23 03:49N 52°10' E 003°39'0 0.0
2017-Nov-23 03:25N 52°10' E 003°38'0 0.0
2017-Nov-23 02:55N 52°10' E 003°38'0 0.0
2017-Nov-23 02:28N 52°10' E 003°38'0 0.1
2017-Nov-23 01:52N 52°10' E 003°38'0 0.0
2017-Nov-23 01:28N 52°10' E 003°38'0 0.0
2017-Nov-23 00:58N 52°10' E 003°38'0 0.0
2017-Nov-23 00:22N 52°10' E 003°38'0 0.1
2017-Nov-22 23:55N 52°10' E 003°38'0 0.1
2017-Nov-22 23:28N 52°10' E 003°38'1 2.3
2017-Nov-22 23:00N 52°11' E 003°39'510.0
2017-Nov-22 22:30N 52°16' E 003°43'612.6
2017-Nov-22 22:00N 52°21' E 003°48'612.3
2017-Nov-22 21:30N 52°27' E 003°51'612.1
2017-Nov-22 21:00N 52°33' E 003°51'611.4
2017-Nov-22 20:30N 52°39' E 003°53'611.3
2017-Nov-22 20:00N 52°44' E 003°55'811.0
2017-Nov-22 19:17N 52°52' E 003°58'  
2017-Nov-20 00:30N 53°59' E 008°14'612.3
2017-Nov-20 00:00N 53°60' E 008°04'713.0
2017-Nov-19 23:30N 54°03' E 007°54'3 2.8
2017-Nov-19 22:17N 54°04' E 007°49'0 0.0
2017-Nov-19 21:49N 54°04' E 007°49'0 0.9
2017-Nov-19 21:31N 54°04' E 007°49'3 6.2
2017-Nov-19 21:00N 54°04' E 007°54'2 3.7
2017-Nov-19 20:30N 54°03' E 007°57'1 2.8
2017-Nov-19 20:00N 54°02' E 007°59'2 4.3
2017-Nov-19 19:29N 54°03' E 007°55'2 5.0
2017-Nov-19 18:59N 54°04' E 007°52'4 7.6
2017-Nov-19 18:24N 54°06' E 007°45'45 3.3
2017-Nov-19 04:54N 54°42' E 006°58'512.3
2017-Nov-19 04:30N 54°46' E 006°54'712.0
2017-Nov-19 03:53N 54°53' E 006°50'511.9
2017-Nov-19 03:30N 54°57' E 006°48'611.9
2017-Nov-19 03:00N 55°03' E 006°45'611.8
2017-Nov-19 02:30N 55°09' E 006°43'711.6
2017-Nov-19 01:55N 55°16' E 006°43'511.7
2017-Nov-19 01:31N 55°20' E 006°42'611.6
2017-Nov-19 01:00N 55°26' E 006°42'43 8.9
2017-Nov-18 20:12N 56°07' E 007°07'312.1
2017-Nov-18 19:59N 56°09' E 007°07'612.2
2017-Nov-18 19:29N 56°15' E 007°05'4 8.1
2017-Nov-18 18:59N 56°19' E 007°07'4 7.9
2017-Nov-18 18:29N 56°21' E 007°13'4 8.8
2017-Nov-18 17:59N 56°25' E 007°16'  
Track history (hours):
 
Tides and Currents Weather Stations Pressure Air Temp Water Temp Dewpoint Dewpoint Depression Visibility Wind Speed Wind Dir Waves Ship Positions

Sw Cap Ferrat 1

Last reported at 2017-Nov-28 16:02 UTC. Time now 2017-Dec-12 23:37 UTC.
Position N 49°40' W 003°49'.
Warning: this ship's position is 14 days out of date.

Length 183 m; draft 11 m.

Type: Tanker. MMSI: 374419000.

Date/timePositionNaut miles runAvg speedWind from/ knotsBaromVisibWave heightAir tempDewpointWater temp
2017-Nov-28 16:02N 49°40' W 003°49'112.6
2017-Nov-28 16:00N 49°40' W 003°49'1312.3
2017-Nov-28 14:55N 49°47' W 003°31'512.0
2017-Nov-28 14:30N 49°49' W 003°24'612.0
2017-Nov-28 14:00N 49°52' W 003°16'611.7
2017-Nov-28 13:30N 49°54' W 003°08'611.8
2017-Nov-28 13:00N 49°56' W 002°59'611.9
2017-Nov-28 12:30N 49°58' W 002°50'612.1
2017-Nov-28 11:59N 50°01' W 002°41'712.5
2017-Nov-28 11:27N 50°04' W 002°32'1413.0
2017-Nov-28 10:24N 50°07' W 002°11'613.7
2017-Nov-28 09:59N 50°09' W 002°03'1114.0
2017-Nov-28 09:12N 50°12' W 001°46'414.1
2017-Nov-28 08:53N 50°13' W 001°39'714.1
2017-Nov-28 08:24N 50°15' W 001°29'714.0
2017-Nov-28 07:56N 50°16' W 001°19'613.7
2017-Nov-28 07:30N 50°18' W 001°10'2812.7
2017-Nov-28 05:19N 50°25' W 000°29'1011.8
2017-Nov-28 04:30N 50°28' W 000°14'611.5
2017-Nov-28 04:00N 50°29' W 000°05'611.4
2017-Nov-28 03:30N 50°31' E 000°03'611.4
2017-Nov-28 03:00N 50°32' E 000°12'611.4
2017-Nov-28 02:30N 50°34' E 000°21'611.6
2017-Nov-28 02:00N 50°35' E 000°29'612.0
2017-Nov-28 01:30N 50°37' E 000°38'612.4
2017-Nov-28 01:00N 50°41' E 000°46'612.8
2017-Nov-28 00:30N 50°45' E 000°54'612.9
2017-Nov-28 00:00N 50°49' E 001°01'713.1
2017-Nov-27 23:30N 50°54' E 001°09'613.1
2017-Nov-27 23:00N 50°58' E 001°16'612.8
2017-Nov-27 22:30N 51°03' E 001°24'612.1
2017-Nov-27 22:00N 51°06' E 001°32'611.4
2017-Nov-27 21:30N 51°10' E 001°39'611.1
2017-Nov-27 21:00N 51°13' E 001°46'611.1
2017-Nov-27 20:30N 51°18' E 001°49'611.1
2017-Nov-27 20:00N 51°23' E 001°53'510.4
2017-Nov-27 19:30N 51°27' E 001°58'510.7
2017-Nov-27 19:00N 51°31' E 002°04'510.9
2017-Nov-27 18:30N 51°35' E 002°10'5910.8
2017-Nov-27 13:03N 52°04' E 003°33'111.1
2017-Nov-27 13:00N 52°04' E 003°34'611.2
2017-Nov-27 12:30N 52°04' E 003°43'3 5.7
2017-Nov-27 12:00N 52°05' E 003°48'4 7.1
2017-Nov-27 11:30N 52°03' E 003°53'5 9.7
2017-Nov-27 11:00N 52°01' E 003°60'510.9
2017-Nov-27 10:30N 51°58' E 004°07'4 7.4
2017-Nov-27 10:00N 51°56' E 004°12'1 1.3
2017-Nov-27 09:22N 51°55' E 004°13'0 0.0
2017-Nov-27 08:52N 51°55' E 004°13'0 0.0
2017-Nov-27 08:16N 51°55' E 004°13'0 0.0
2017-Nov-27 06:58N 51°55' E 004°13'0 0.0
2017-Nov-27 05:49N 51°55' E 004°13'0 0.0
2017-Nov-27 04:55N 51°55' E 004°13'0 0.0
2017-Nov-27 03:07N 51°55' E 004°13'0 0.0
2017-Nov-27 02:43N 51°55' E 004°13'0 0.0
2017-Nov-27 02:22N 51°55' E 004°13'0 0.0
2017-Nov-27 01:22N 51°55' E 004°13'0 0.0
2017-Nov-27 00:58N 51°55' E 004°13'0 0.0
2017-Nov-27 00:16N 51°55' E 004°13'0 0.0
2017-Nov-26 23:40N 51°55' E 004°13'0 0.0
2017-Nov-26 23:13N 51°55' E 004°13'0 0.0
2017-Nov-26 22:58N 51°55' E 004°13'0 0.0
2017-Nov-26 22:22N 51°55' E 004°13'0 0.0
2017-Nov-26 21:40N 51°55' E 004°13'0 0.0
2017-Nov-26 21:22N 51°55' E 004°13'0 0.0
2017-Nov-26 20:34N 51°55' E 004°13'0 0.0
2017-Nov-26 20:28N 51°55' E 004°13'0 0.0
2017-Nov-26 18:58N 51°55' E 004°13'0 0.0
2017-Nov-26 18:22N 51°55' E 004°13'0 0.0
2017-Nov-26 17:58N 51°55' E 004°13'0 0.0
2017-Nov-26 17:22N 51°55' E 004°13'0 0.0
2017-Nov-26 16:34N 51°55' E 004°13'0 0.0
2017-Nov-26 16:28N 51°55' E 004°13'0 0.0
2017-Nov-26 15:58N 51°55' E 004°13'0 0.0
2017-Nov-26 15:22N 51°55' E 004°13'0 0.0
2017-Nov-26 14:28N 51°55' E 004°13'0 0.0
2017-Nov-26 13:58N 51°55' E 004°13'0 0.0
2017-Nov-26 10:07N 51°55' E 004°13'0 0.0
2017-Nov-26 09:58N 51°55' E 004°13'0 0.0
2017-Nov-26 09:13N 51°55' E 004°13'0 0.0
2017-Nov-26 08:52N 51°55' E 004°13'0 0.0
2017-Nov-26 08:22N 51°55' E 004°13'0 0.0
2017-Nov-26 07:58N 51°55' E 004°13'0 0.0
2017-Nov-26 07:19N 51°55' E 004°13'0 0.0
2017-Nov-26 06:46N 51°55' E 004°13'0 0.0
2017-Nov-26 06:19N 51°55' E 004°13'0 0.0
2017-Nov-26 05:55N 51°55' E 004°13'0 0.0
2017-Nov-26 05:22N 51°55' E 004°13'0 0.0
2017-Nov-26 04:58N 51°55' E 004°13'0 0.0
2017-Nov-26 04:28N 51°55' E 004°13'0 0.0
2017-Nov-26 03:58N 51°55' E 004°13'0 0.0
2017-Nov-26 03:25N 51°55' E 004°13'0 0.0
2017-Nov-26 02:58N 51°55' E 004°13'0 0.0
2017-Nov-26 02:28N 51°55' E 004°13'0 0.0
2017-Nov-26 01:52N 51°55' E 004°13'0 0.0
2017-Nov-26 01:19N 51°55' E 004°13'0 0.0
2017-Nov-26 00:52N 51°55' E 004°13'0 0.0
2017-Nov-26 00:25N 51°55' E 004°13'0 0.0
2017-Nov-25 23:58N 51°55' E 004°13'0 0.0
2017-Nov-25 23:28N 51°55' E 004°13'0 0.0
2017-Nov-25 22:49N 51°55' E 004°13'0 0.0
2017-Nov-25 22:28N 51°55' E 004°13'0 0.0
2017-Nov-25 21:58N 51°55' E 004°13'0 0.0
2017-Nov-25 21:28N 51°55' E 004°13'0 0.0
2017-Nov-25 19:52N 51°55' E 004°13'0 0.0
2017-Nov-25 19:22N 51°55' E 004°13'0 0.0
2017-Nov-25 18:58N 51°55' E 004°13'0 0.0
2017-Nov-25 18:25N 51°55' E 004°13'0 0.0
2017-Nov-25 17:52N 51°55' E 004°13'0 0.0
2017-Nov-25 17:16N 51°55' E 004°13'0 0.0
2017-Nov-25 16:52N 51°55' E 004°13'0 0.0
2017-Nov-25 16:28N 51°55' E 004°13'0 0.0
2017-Nov-25 15:55N 51°55' E 004°13'0 0.0
2017-Nov-25 15:28N 51°55' E 004°13'0 0.0
2017-Nov-25 14:40N 51°55' E 004°13'0 0.0
2017-Nov-25 14:28N 51°55' E 004°13'0 0.0
2017-Nov-25 13:49N 51°55' E 004°13'0 0.0
2017-Nov-25 13:22N 51°55' E 004°13'0 0.0
2017-Nov-25 12:58N 51°55' E 004°13'0 0.0
2017-Nov-25 12:22N 51°55' E 004°13'0 0.0
2017-Nov-25 11:52N 51°55' E 004°13'0 0.0
2017-Nov-25 11:28N 51°55' E 004°13'0 0.0
2017-Nov-25 10:58N 51°55' E 004°13'0 0.0
2017-Nov-25 10:07N 51°55' E 004°13'0 0.0
2017-Nov-25 09:58N 51°55' E 004°13'0 0.0
2017-Nov-25 09:28N 51°55' E 004°13'0 0.0
2017-Nov-25 08:37N 51°55' E 004°13'0 0.0
2017-Nov-25 08:07N 51°55' E 004°13'0 0.0
2017-Nov-25 07:52N 51°55' E 004°13'0 0.0
2017-Nov-25 07:25N 51°55' E 004°13'0 0.0
2017-Nov-25 06:52N 51°55' E 004°13'0 0.0
2017-Nov-25 06:28N 51°55' E 004°13'0 0.0
2017-Nov-25 05:58N 51°55' E 004°13'0 0.0
2017-Nov-25 05:28N 51°55' E 004°13'0 0.0
2017-Nov-25 04:49N 51°55' E 004°13'0 0.0
2017-Nov-25 04:19N 51°55' E 004°13'0 0.0
2017-Nov-25 03:55N 51°55' E 004°13'0 0.0
2017-Nov-25 03:25N 51°55' E 004°13'0 0.0
2017-Nov-25 02:58N 51°55' E 004°13'0 0.0
2017-Nov-25 02:28N 51°55' E 004°13'0 0.0
2017-Nov-25 01:55N 51°55' E 004°13'0 0.0
2017-Nov-25 01:22N 51°55' E 004°13'0 0.0
2017-Nov-25 00:49N 51°55' E 004°13'0 0.0
2017-Nov-25 00:28N 51°55' E 004°13'0 0.0
2017-Nov-24 23:55N 51°55' E 004°13'0 0.0
2017-Nov-24 23:25N 51°55' E 004°13'0 0.0
2017-Nov-24 22:55N 51°55' E 004°13'0 0.0
2017-Nov-24 22:13N 51°55' E 004°13'0 0.0
2017-Nov-24 21:58N 51°55' E 004°13'0 0.0
2017-Nov-24 21:22N 51°55' E 004°13'0 0.0
2017-Nov-24 20:55N 51°55' E 004°13'0 0.0
2017-Nov-24 20:30N 51°55' E 004°13'1 1.7
2017-Nov-24 20:00N 51°56' E 004°12'3 6.1
2017-Nov-24 19:30N 51°58' E 004°08'510.8
2017-Nov-24 19:01N 51°60' E 004°00'713.4
2017-Nov-24 18:30N 52°00' E 003°49'4 8.1
2017-Nov-24 18:00N 52°04' E 003°46'5 8.9
2017-Nov-24 17:30N 52°08' E 003°45'4 7.9
2017-Nov-24 16:58N 52°10' E 003°38'0 0.2
2017-Nov-24 16:16N 52°10' E 003°39'0 0.1
2017-Nov-24 15:58N 52°10' E 003°39'0 0.1
2017-Nov-24 15:25N 52°10' E 003°39'0 0.0
2017-Nov-24 14:55N 52°10' E 003°39'0 0.1
2017-Nov-24 14:25N 52°10' E 003°39'0 0.1
2017-Nov-24 13:58N 52°10' E 003°39'0 0.0
2017-Nov-24 13:28N 52°10' E 003°39'0 0.0
2017-Nov-24 12:52N 52°10' E 003°39'0 0.1
2017-Nov-24 12:28N 52°10' E 003°39'0 0.0
2017-Nov-24 11:58N 52°10' E 003°39'0 0.0
2017-Nov-24 11:28N 52°10' E 003°39'0 0.0
2017-Nov-24 10:58N 52°10' E 003°39'0 0.0
2017-Nov-24 10:28N 52°10' E 003°39'0 0.1
2017-Nov-24 09:49N 52°10' E 003°39'0 0.1
2017-Nov-24 09:28N 52°10' E 003°39'0 0.0
2017-Nov-24 08:58N 52°10' E 003°39'0 0.2
2017-Nov-24 08:28N 52°10' E 003°39'0 0.1
2017-Nov-24 07:52N 52°10' E 003°39'0 0.0
2017-Nov-24 07:13N 52°10' E 003°39'0 0.1
2017-Nov-24 06:58N 52°10' E 003°39'0 0.0
2017-Nov-24 06:13N 52°10' E 003°39'0 0.0
2017-Nov-24 05:49N 52°10' E 003°39'0 0.0
2017-Nov-24 05:19N 52°10' E 003°39'0 0.0
2017-Nov-24 03:34N 52°10' E 003°39'0 0.1
2017-Nov-24 03:13N 52°10' E 003°39'0 0.1
2017-Nov-24 02:58N 52°10' E 003°39'0 0.0
2017-Nov-24 02:25N 52°10' E 003°39'0 0.1
2017-Nov-24 01:46N 52°10' E 003°39'0 0.0
2017-Nov-24 01:28N 52°10' E 003°39'0 0.1
2017-Nov-24 00:58N 52°10' E 003°39'0 0.0
2017-Nov-24 00:28N 52°10' E 003°39'0 0.0
2017-Nov-23 23:58N 52°10' E 003°39'0 0.0
2017-Nov-23 23:28N 52°10' E 003°39'0 0.1
2017-Nov-23 22:52N 52°10' E 003°39'0 0.1
2017-Nov-23 22:28N 52°10' E 003°39'0 0.0
2017-Nov-23 21:58N 52°10' E 003°39'0 0.1
2017-Nov-23 21:28N 52°10' E 003°39'0 0.0
2017-Nov-23 20:55N 52°10' E 003°39'0 0.0
2017-Nov-23 20:19N 52°10' E 003°39'0 0.0
2017-Nov-23 19:58N 52°10' E 003°39'0 0.0
2017-Nov-23 19:19N 52°10' E 003°39'0 0.0
2017-Nov-23 18:49N 52°10' E 003°39'0 0.1
2017-Nov-23 18:22N 52°10' E 003°39'0 0.0
2017-Nov-23 17:55N 52°10' E 003°39'0 0.0
2017-Nov-23 17:19N 52°10' E 003°39'0 0.0
2017-Nov-23 16:37N 52°10' E 003°39'0 0.0
2017-Nov-23 16:16N 52°10' E 003°39'0 0.1
2017-Nov-23 15:52N 52°10' E 003°39'0 0.1
2017-Nov-23 15:25N 52°10' E 003°39'0 0.1
2017-Nov-23 14:58N 52°10' E 003°39'0 0.1
2017-Nov-23 14:04N 52°10' E 003°39'0 0.1
2017-Nov-23 13:52N 52°10' E 003°39'0 0.0
2017-Nov-23 13:28N 52°10' E 003°39'0 0.0
2017-Nov-23 12:58N 52°10' E 003°39'0 0.0
2017-Nov-23 12:13N 52°10' E 003°39'0 0.1
2017-Nov-23 11:55N 52°10' E 003°39'0 0.0
2017-Nov-23 11:28N 52°10' E 003°39'0 0.2
2017-Nov-23 10:55N 52°10' E 003°39'0 0.0
2017-Nov-23 10:10N 52°10' E 003°39'0 0.1
2017-Nov-23 09:49N 52°10' E 003°39'0 0.1
2017-Nov-23 09:13N 52°10' E 003°39'0 0.0
2017-Nov-23 08:40N 52°10' E 003°39'0 0.1
2017-Nov-23 08:28N 52°10' E 003°39'0 0.0
2017-Nov-23 07:58N 52°10' E 003°39'0 0.1
2017-Nov-23 07:28N 52°10' E 003°38'0 0.0
2017-Nov-23 06:43N 52°10' E 003°38'0 0.1
2017-Nov-23 06:28N 52°10' E 003°39'0 0.0
2017-Nov-23 05:55N 52°10' E 003°39'0 0.0
2017-Nov-23 05:16N 52°10' E 003°38'0 0.1
2017-Nov-23 04:58N 52°10' E 003°39'0 0.1
2017-Nov-23 04:25N 52°10' E 003°38'0 0.0
2017-Nov-23 03:49N 52°10' E 003°39'0 0.0
2017-Nov-23 03:25N 52°10' E 003°38'0 0.0
2017-Nov-23 02:55N 52°10' E 003°38'0 0.0
2017-Nov-23 02:28N 52°10' E 003°38'0 0.1
2017-Nov-23 01:52N 52°10' E 003°38'0 0.0
2017-Nov-23 01:28N 52°10' E 003°38'0 0.0
2017-Nov-23 00:58N 52°10' E 003°38'0 0.0
2017-Nov-23 00:22N 52°10' E 003°38'0 0.1
2017-Nov-22 23:55N 52°10' E 003°38'0 0.1
2017-Nov-22 23:28N 52°10' E 003°38'1 2.3
2017-Nov-22 23:00N 52°11' E 003°39'510.0
2017-Nov-22 22:30N 52°16' E 003°43'612.6
2017-Nov-22 22:00N 52°21' E 003°48'612.3
2017-Nov-22 21:30N 52°27' E 003°51'612.1
2017-Nov-22 21:00N 52°33' E 003°51'611.4
2017-Nov-22 20:30N 52°39' E 003°53'611.3
2017-Nov-22 20:00N 52°44' E 003°55'811.0
2017-Nov-22 19:17N 52°52' E 003°58'  
2017-Nov-20 00:30N 53°59' E 008°14'612.3
2017-Nov-20 00:00N 53°60' E 008°04'713.0
2017-Nov-19 23:30N 54°03' E 007°54'3 2.8
2017-Nov-19 22:17N 54°04' E 007°49'0 0.0
2017-Nov-19 21:49N 54°04' E 007°49'0 0.9
2017-Nov-19 21:31N 54°04' E 007°49'3 6.2
2017-Nov-19 21:00N 54°04' E 007°54'2 3.7
2017-Nov-19 20:30N 54°03' E 007°57'1 2.8
2017-Nov-19 20:00N 54°02' E 007°59'2 4.3
2017-Nov-19 19:29N 54°03' E 007°55'2 5.0
2017-Nov-19 18:59N 54°04' E 007°52'4 7.6
2017-Nov-19 18:24N 54°06' E 007°45'45 3.3
2017-Nov-19 04:54N 54°42' E 006°58'512.3
2017-Nov-19 04:30N 54°46' E 006°54'712.0
2017-Nov-19 03:53N 54°53' E 006°50'511.9
2017-Nov-19 03:30N 54°57' E 006°48'611.9
2017-Nov-19 03:00N 55°03' E 006°45'611.8
2017-Nov-19 02:30N 55°09' E 006°43'711.6
2017-Nov-19 01:55N 55°16' E 006°43'511.7
2017-Nov-19 01:31N 55°20' E 006°42'611.6
2017-Nov-19 01:00N 55°26' E 006°42'43 8.9
2017-Nov-18 20:12N 56°07' E 007°07'312.1
2017-Nov-18 19:59N 56°09' E 007°07'612.2
2017-Nov-18 19:29N 56°15' E 007°05'4 8.1
2017-Nov-18 18:59N 56°19' E 007°07'4 7.9
2017-Nov-18 18:29N 56°21' E 007°13'4 8.8
2017-Nov-18 17:59N 56°25' E 007°16'  

Dump ship's entire track history